Time;durP1;ratioP1;P1;durP2;ratioP2;P2;SDS_P1;SDS_P2;PMS_P1;PMS_P2;Temp;Humidity;BMP_temperature;BMP_pressure;BME280_temperature;BME280_humidity;BME280_pressure;Samples;Min_cycle;Max_cycle;Signal;HPM_P1;HPM_P2
2023/08/24 00:03:52;;;;;;;16.58;11.07;;;;;;;;;;5866188;24;20096;-92
2023/08/24 07:30:59;;;;;;;6.72;5.32;;;;;;;;;;6293507;22;20056;-88
2023/08/24 07:33:43;;;;;;;8.20;6.22;;;;;;;;;;6308278;22;20019;-89
2023/08/24 07:36:24;;;;;;;10.20;5.95;;;;;;;;;;6254828;22;20019;-88
2023/08/24 07:45:52;;;;;;;8.68;5.93;;;;;;;;;;6264463;22;20140;-88
2023/08/24 07:48:30;;;;;;;8.13;5.45;;;;;;;;;;6238560;22;20025;-88
2023/08/24 07:51:25;;;;;;;7.68;5.20;;;;;;;;;;6257508;22;20454;-89
2023/08/24 08:00:52;;;;;;;8.95;5.55;;;;;;;;;;6187223;23;20020;-89
2023/08/24 08:03:35;;;;;;;7.93;5.43;;;;;;;;;;6184827;23;20017;-89
2023/08/24 08:09:54;;;;;;;8.25;5.35;;;;;;;;;;6163353;23;20021;-89
2023/08/24 08:16:10;;;;;;;;;;;;;;;;;;;;;
2023/08/24 08:18:59;;;;;;;8.10;4.68;;;;;;;;;;6187969;23;20048;-89
2023/08/24 08:28:29;;;;;;;6.70;3.92;;;;;;;;;;6061539;23;20058;-88
2023/08/24 08:31:24;;;;;;;7.70;4.20;;;;;;;;;;6094691;23;20087;-88
2023/08/24 08:34:40;;;;;;;7.50;4.10;;;;;;;;;;6156928;23;20055;-90
2023/08/24 08:37:15;;;;;;;7.65;4.30;;;;;;;;;;6072970;23;20018;-89
2023/08/24 08:39:57;;;;;;;7.50;4.68;;;;;;;;;;6072557;23;20014;-90
2023/08/24 08:42:36;;;;;;;;;;;;;;;;;;;;;
2023/08/24 08:45:03;;;;;;;6.00;4.38;;;;;;;;;;6093467;23;20546;-88
2023/08/24 08:47:29;;;;;;;9.88;4.60;;;;;;;;;;6072190;23;20089;-88
2023/08/24 08:49:56;;;;;;;6.45;4.07;;;;;;;;;;6072506;23;20019;-88
2023/08/24 09:12:50;;;;;;;8.02;5.72;;;;;;;;;;6184705;23;20032;-88
2023/08/24 09:15:27;;;;;;;8.65;5.65;;;;;;;;;;6159861;23;20167;-88
2023/08/24 09:17:55;;;;;;;9.07;5.45;;;;;;;;;;6134800;23;20029;-88
2023/08/24 09:26:55;;;;;;;7.18;5.70;;;;;;;;;;6067559;23;20026;-89
2023/08/24 09:46:33;;;;;;;7.53;6.28;;;;;;;;;;6142760;23;20400;-89
2023/08/24 09:49:27;;;;;;;9.95;6.60;;;;;;;;;;6070428;23;20053;-89
2023/08/24 09:52:33;;;;;;;10.65;6.05;;;;;;;;;;6165492;23;20063;-90
2023/08/24 09:55:11;;;;;;;9.35;5.93;;;;;;;;;;6229034;22;20095;-90
2023/08/24 09:58:00;;;;;;;8.32;6.50;;;;;;;;;;6250845;22;20024;-89
2023/08/24 10:00:38;;;;;;;7.35;5.72;;;;;;;;;;6226587;22;20012;-89
2023/08/24 10:03:20;;;;;;;10.85;6.10;;;;;;;;;;6225926;22;20474;-90
2023/08/24 10:06:03;;;;;;;10.68;6.20;;;;;;;;;;6244185;22;20020;-89
2023/08/24 10:08:39;;;;;;;9.07;6.40;;;;;;;;;;6225551;22;20034;-89
2023/08/24 10:11:36;;;;;;;9.20;6.05;;;;;;;;;;6226591;22;20054;-88
2023/08/24 10:14:17;;;;;;;10.40;6.47;;;;;;;;;;6224757;22;20087;-89
2023/08/24 10:16:56;;;;;;;14.63;7.95;;;;;;;;;;6249795;22;20094;-88
2023/08/24 10:19:27;;;;;;;13.25;7.30;;;;;;;;;;6249027;22;20015;-89
2023/08/24 10:21:59;;;;;;;9.80;7.18;;;;;;;;;;6250716;22;20090;-88
2023/08/24 10:24:35;;;;;;;12.88;7.70;;;;;;;;;;6228373;22;20015;-89
2023/08/24 10:27:20;;;;;;;11.85;7.10;;;;;;;;;;6226562;22;20016;-89
2023/08/24 10:30:35;;;;;;;;;;;;;;;;;;;;;
2023/08/24 10:33:05;;;;;;;12.32;8.10;;;;;;;;;;6280918;22;20321;-89
2023/08/24 10:35:34;;;;;;;12.50;7.97;;;;;;;;;;6284692;22;20022;-89
2023/08/24 10:44:31;;;;;;;;;;;;;;;;;;6281561;22;20020;-89
2023/08/24 10:47:35;;;;;;;11.63;8.48;;;;;;;;;;6283502;22;20274;-92
2023/08/24 11:03:37;;;;;;;14.80;9.05;;;;;;;;;;6168639;23;20021;-90
2023/08/24 11:06:21;;;;;;;11.77;8.27;;;;;;;;;;6110039;23;20021;-88
2023/08/24 11:08:53;;;;;;;13.90;9.38;;;;;;;;;;6105862;23;20017;-89
2023/08/24 11:11:22;;;;;;;12.35;9.02;;;;;;;;;;6130110;23;20022;-89
2023/08/24 11:14:09;;;;;;;13.90;8.93;;;;;;;;;;6130528;23;20021;-90
2023/08/24 11:16:57;;;;;;;13.40;9.00;;;;;;;;;;6106484;23;20331;-90
2023/08/24 11:19:46;;;;;;;15.55;10.50;;;;;;;;;;6106946;23;20114;-91
2023/08/24 11:22:12;;;;;;;;;;;;;;;;;;6132127;23;20096;-90
2023/08/24 11:24:39;;;;;;;13.73;9.32;;;;;;;;;;6103898;23;20035;-90
2023/08/24 11:30:05;;;;;;;12.63;10.30;;;;;;;;;;6221245;23;20025;-91
2023/08/24 11:32:48;;;;;;;14.10;11.02;;;;;;;;;;6172555;22;20055;-90
2023/08/24 11:35:23;;;;;;;12.15;10.25;;;;;;;;;;6251819;22;20047;-90
2023/08/24 11:38:02;;;;;;;13.43;10.20;;;;;;;;;;6227130;22;20091;-90
2023/08/24 11:40:34;;;;;;;16.27;11.18;;;;;;;;;;6252892;22;20016;-90
2023/08/24 12:08:21;;;;;;;12.90;10.40;;;;;;;;;;5765668;24;20031;-91
